sensor_id;sensor_type;location;lat;lon;timestamp;temperature;humidity
77693;SHT31;66984;47.404;18.836;2023-05-07T00:01:01;16.89;72.79
77693;SHT31;66984;47.404;18.836;2023-05-07T00:02:06;16.89;72.71
77693;SHT31;66984;47.404;18.836;2023-05-07T00:03:10;16.89;72.63
77693;SHT31;66984;47.404;18.836;2023-05-07T00:04:14;16.90;72.54
77693;SHT31;66984;47.404;18.836;2023-05-07T00:05:17;16.86;72.58
77693;SHT31;66984;47.404;18.836;2023-05-07T00:06:20;16.86;72.54
77693;SHT31;66984;47.404;18.836;2023-05-07T00:07:23;16.86;72.59
77693;SHT31;66984;47.404;18.836;2023-05-07T00:08:26;16.83;72.70
77693;SHT31;66984;47.404;18.836;2023-05-07T00:09:29;16.79;72.89
77693;SHT31;66984;47.404;18.836;2023-05-07T00:10:32;16.78;73.04
77693;SHT31;66984;47.404;18.836;2023-05-07T00:11:35;16.73;73.11
77693;SHT31;66984;47.404;18.836;2023-05-07T00:12:38;16.75;73.19
77693;SHT31;66984;47.404;18.836;2023-05-07T00:13:41;16.68;73.35
77693;SHT31;66984;47.404;18.836;2023-05-07T00:14:44;16.69;73.38
77693;SHT31;66984;47.404;18.836;2023-05-07T00:15:46;16.68;73.36
77693;SHT31;66984;47.404;18.836;2023-05-07T00:16:49;16.67;73.44
77693;SHT31;66984;47.404;18.836;2023-05-07T00:17:53;16.68;73.42
77693;SHT31;66984;47.404;18.836;2023-05-07T00:18:56;16.61;73.48
77693;SHT31;66984;47.404;18.836;2023-05-07T00:19:59;16.58;73.53
77693;SHT31;66984;47.404;18.836;2023-05-07T00:21:02;16.58;73.63
77693;SHT31;66984;47.404;18.836;2023-05-07T00:22:05;16.57;73.65
77693;SHT31;66984;47.404;18.836;2023-05-07T00:23:09;16.55;73.62
77693;SHT31;66984;47.404;18.836;2023-05-07T00:24:12;16.57;73.61
77693;SHT31;66984;47.404;18.836;2023-05-07T00:25:14;16.55;73.55
77693;SHT31;66984;47.404;18.836;2023-05-07T00:26:17;16.52;73.46
77693;SHT31;66984;47.404;18.836;2023-05-07T00:27:20;16.51;73.32
77693;SHT31;66984;47.404;18.836;2023-05-07T00:28:23;16.47;73.32
77693;SHT31;66984;47.404;18.836;2023-05-07T00:29:26;16.48;73.22
77693;SHT31;66984;47.404;18.836;2023-05-07T00:30:29;16.45;73.25
77693;SHT31;66984;47.404;18.836;2023-05-07T00:31:32;16.42;73.24
77693;SHT31;66984;47.404;18.836;2023-05-07T00:32:35;16.44;73.12
77693;SHT31;66984;47.404;18.836;2023-05-07T00:33:38;16.44;73.10
77693;SHT31;66984;47.404;18.836;2023-05-07T00:34:42;16.41;73.14
77693;SHT31;66984;47.404;18.836;2023-05-07T00:35:45;16.40;73.24
77693;SHT31;66984;47.404;18.836;2023-05-07T00:36:48;16.40;73.20
77693;SHT31;66984;47.404;18.836;2023-05-07T00:37:51;16.37;73.18
77693;SHT31;66984;47.404;18.836;2023-05-07T00:38:54;16.31;73.10
77693;SHT31;66984;47.404;18.836;2023-05-07T00:39:58;16.28;73.07
77693;SHT31;66984;47.404;18.836;2023-05-07T00:41:01;16.30;73.03
77693;SHT31;66984;47.404;18.836;2023-05-07T00:42:05;16.28;72.90
77693;SHT31;66984;47.404;18.836;2023-05-07T00:43:08;16.25;72.82
77693;SHT31;66984;47.404;18.836;2023-05-07T00:44:11;16.24;72.85
77693;SHT31;66984;47.404;18.836;2023-05-07T00:45:15;16.22;72.97
77693;SHT31;66984;47.404;18.836;2023-05-07T00:46:20;16.24;72.96
77693;SHT31;66984;47.404;18.836;2023-05-07T00:47:23;16.22;72.95
77693;SHT31;66984;47.404;18.836;2023-05-07T00:48:27;16.18;73.07
77693;SHT31;66984;47.404;18.836;2023-05-07T00:49:42;16.13;73.17
77693;SHT31;66984;47.404;18.836;2023-05-07T00:50:45;16.13;73.25
77693;SHT31;66984;47.404;18.836;2023-05-07T00:51:49;16.13;72.99
77693;SHT31;66984;47.404;18.836;2023-05-07T00:52:53;16.10;72.94
77693;SHT31;66984;47.404;18.836;2023-05-07T00:53:56;16.13;72.86
77693;SHT31;66984;47.404;18.836;2023-05-07T00:55:04;16.14;72.81
77693;SHT31;66984;47.404;18.836;2023-05-07T00:56:08;16.13;72.70
77693;SHT31;66984;47.404;18.836;2023-05-07T00:57:12;16.11;72.62
77693;SHT31;66984;47.404;18.836;2023-05-07T00:58:16;16.11;72.64
77693;SHT31;66984;47.404;18.836;2023-05-07T00:59:19;16.07;72.65
77693;SHT31;66984;47.404;18.836;2023-05-07T01:00:22;16.07;72.71
77693;SHT31;66984;47.404;18.836;2023-05-07T01:01:25;16.01;72.75
77693;SHT31;66984;47.404;18.836;2023-05-07T01:02:29;15.99;72.75
77693;SHT31;66984;47.404;18.836;2023-05-07T01:03:32;15.96;72.79
77693;SHT31;66984;47.404;18.836;2023-05-07T01:04:35;15.94;72.82
77693;SHT31;66984;47.404;18.836;2023-05-07T01:05:39;15.93;72.79
77693;SHT31;66984;47.404;18.836;2023-05-07T01:06:45;15.90;72.89
77693;SHT31;66984;47.404;18.836;2023-05-07T01:07:50;15.87;73.02
77693;SHT31;66984;47.404;18.836;2023-05-07T01:08:54;15.90;73.03
77693;SHT31;66984;47.404;18.836;2023-05-07T01:10:00;15.87;73.02
77693;SHT31;66984;47.404;18.836;2023-05-07T01:11:03;15.86;73.11
77693;SHT31;66984;47.404;18.836;2023-05-07T01:12:07;15.85;73.16
77693;SHT31;66984;47.404;18.836;2023-05-07T01:13:11;15.80;73.27
77693;SHT31;66984;47.404;18.836;2023-05-07T01:14:15;15.79;73.42
77693;SHT31;66984;47.404;18.836;2023-05-07T01:15:18;15.74;73.65
77693;SHT31;66984;47.404;18.836;2023-05-07T01:16:21;15.73;73.66
77693;SHT31;66984;47.404;18.836;2023-05-07T01:17:24;15.74;73.57
77693;SHT31;66984;47.404;18.836;2023-05-07T01:18:28;15.80;73.44
77693;SHT31;66984;47.404;18.836;2023-05-07T01:19:32;15.76;73.37
77693;SHT31;66984;47.404;18.836;2023-05-07T01:20:35;15.78;73.33
77693;SHT31;66984;47.404;18.836;2023-05-07T01:21:38;15.78;73.36
77693;SHT31;66984;47.404;18.836;2023-05-07T01:22:43;15.72;73.30
77693;SHT31;66984;47.404;18.836;2023-05-07T01:23:46;15.70;73.39
77693;SHT31;66984;47.404;18.836;2023-05-07T01:24:50;15.69;73.38
77693;SHT31;66984;47.404;18.836;2023-05-07T01:25:53;15.72;73.28
77693;SHT31;66984;47.404;18.836;2023-05-07T01:26:56;15.72;73.14
77693;SHT31;66984;47.404;18.836;2023-05-07T01:27:59;15.72;72.99
77693;SHT31;66984;47.404;18.836;2023-05-07T01:29:03;15.70;72.97
77693;SHT31;66984;47.404;18.836;2023-05-07T01:30:07;15.70;72.96
77693;SHT31;66984;47.404;18.836;2023-05-07T01:31:12;15.70;72.89
77693;SHT31;66984;47.404;18.836;2023-05-07T01:32:19;15.66;72.97
77693;SHT31;66984;47.404;18.836;2023-05-07T01:33:25;15.66;72.99
77693;SHT31;66984;47.404;18.836;2023-05-07T01:34:31;15.65;73.01
77693;SHT31;66984;47.404;18.836;2023-05-07T01:35:40;15.66;72.97
77693;SHT31;66984;47.404;18.836;2023-05-07T01:36:45;15.62;72.98
77693;SHT31;66984;47.404;18.836;2023-05-07T01:37:49;15.62;73.00
77693;SHT31;66984;47.404;18.836;2023-05-07T01:38:52;15.62;72.93
77693;SHT31;66984;47.404;18.836;2023-05-07T01:39:55;15.56;72.79
77693;SHT31;66984;47.404;18.836;2023-05-07T01:40:59;15.55;72.68
77693;SHT31;66984;47.404;18.836;2023-05-07T01:42:02;15.53;72.42
77693;SHT31;66984;47.404;18.836;2023-05-07T01:43:06;15.52;72.26
77693;SHT31;66984;47.404;18.836;2023-05-07T01:44:10;15.51;72.25
77693;SHT31;66984;47.404;18.836;2023-05-07T01:45:15;15.49;72.34
77693;SHT31;66984;47.404;18.836;2023-05-07T01:46:18;15.45;72.44
77693;SHT31;66984;47.404;18.836;2023-05-07T01:47:21;15.43;72.69
77693;SHT31;66984;47.404;18.836;2023-05-07T01:48:25;15.42;72.86
77693;SHT31;66984;47.404;18.836;2023-05-07T01:49:28;15.41;72.93
77693;SHT31;66984;47.404;18.836;2023-05-07T01:50:32;15.43;72.98
77693;SHT31;66984;47.404;18.836;2023-05-07T01:51:35;15.41;72.96
77693;SHT31;66984;47.404;18.836;2023-05-07T01:52:38;15.42;72.99
77693;SHT31;66984;47.404;18.836;2023-05-07T01:53:41;15.39;73.04
77693;SHT31;66984;47.404;18.836;2023-05-07T01:54:44;15.36;73.15
77693;SHT31;66984;47.404;18.836;2023-05-07T01:55:47;15.36;73.17
77693;SHT31;66984;47.404;18.836;2023-05-07T01:56:49;15.36;73.17
77693;SHT31;66984;47.404;18.836;2023-05-07T01:57:52;15.39;73.13
77693;SHT31;66984;47.404;18.836;2023-05-07T01:58:55;15.39;73.01
77693;SHT31;66984;47.404;18.836;2023-05-07T01:59:58;15.39;72.93
77693;SHT31;66984;47.404;18.836;2023-05-07T02:01:01;15.35;72.97
77693;SHT31;66984;47.404;18.836;2023-05-07T02:02:04;15.35;73.03
77693;SHT31;66984;47.404;18.836;2023-05-07T02:03:07;15.34;72.96
77693;SHT31;66984;47.404;18.836;2023-05-07T02:04:10;15.32;72.76
77693;SHT31;66984;47.404;18.836;2023-05-07T02:05:13;15.34;72.70
77693;SHT31;66984;47.404;18.836;2023-05-07T02:06:16;15.28;72.63
77693;SHT31;66984;47.404;18.836;2023-05-07T02:07:19;15.27;72.59
77693;SHT31;66984;47.404;18.836;2023-05-07T02:08:22;15.24;72.73
77693;SHT31;66984;47.404;18.836;2023-05-07T02:09:25;15.24;72.74
77693;SHT31;66984;47.404;18.836;2023-05-07T02:10:27;15.24;72.78
77693;SHT31;66984;47.404;18.836;2023-05-07T02:11:30;15.21;72.89
77693;SHT31;66984;47.404;18.836;2023-05-07T02:12:33;15.17;73.08
77693;SHT31;66984;47.404;18.836;2023-05-07T02:13:36;15.17;73.19
77693;SHT31;66984;47.404;18.836;2023-05-07T02:14:39;15.17;73.17
77693;SHT31;66984;47.404;18.836;2023-05-07T02:15:42;15.18;73.12
77693;SHT31;66984;47.404;18.836;2023-05-07T02:16:47;15.18;73.09
77693;SHT31;66984;47.404;18.836;2023-05-07T02:18:19;15.11;73.12
77693;SHT31;66984;47.404;18.836;2023-05-07T02:19:22;15.07;73.16
77693;SHT31;66984;47.404;18.836;2023-05-07T02:20:25;15.10;73.16
77693;SHT31;66984;47.404;18.836;2023-05-07T02:21:28;15.08;73.14
77693;SHT31;66984;47.404;18.836;2023-05-07T02:22:31;15.04;73.17
77693;SHT31;66984;47.404;18.836;2023-05-07T02:23:34;15.01;73.11
77693;SHT31;66984;47.404;18.836;2023-05-07T02:24:37;15.00;73.10
77693;SHT31;66984;47.404;18.836;2023-05-07T02:25:40;15.00;73.07
77693;SHT31;66984;47.404;18.836;2023-05-07T02:26:43;14.95;73.06
77693;SHT31;66984;47.404;18.836;2023-05-07T02:27:46;14.91;73.08
77693;SHT31;66984;47.404;18.836;2023-05-07T02:28:48;14.91;73.08
77693;SHT31;66984;47.404;18.836;2023-05-07T02:29:51;14.87;73.10
77693;SHT31;66984;47.404;18.836;2023-05-07T02:30:54;14.85;73.09
77693;SHT31;66984;47.404;18.836;2023-05-07T02:31:57;14.81;73.20
77693;SHT31;66984;47.404;18.836;2023-05-07T02:33:00;14.77;73.23
77693;SHT31;66984;47.404;18.836;2023-05-07T02:34:03;14.81;73.07
77693;SHT31;66984;47.404;18.836;2023-05-07T02:35:07;14.85;72.91
77693;SHT31;66984;47.404;18.836;2023-05-07T02:36:10;14.84;72.80
77693;SHT31;66984;47.404;18.836;2023-05-07T02:37:13;14.85;72.86
77693;SHT31;66984;47.404;18.836;2023-05-07T02:38:16;14.87;72.82
77693;SHT31;66984;47.404;18.836;2023-05-07T02:39:19;14.85;72.89
77693;SHT31;66984;47.404;18.836;2023-05-07T02:40:23;14.87;72.89
77693;SHT31;66984;47.404;18.836;2023-05-07T02:41:26;14.88;73.00
77693;SHT31;66984;47.404;18.836;2023-05-07T02:42:30;14.87;73.07
77693;SHT31;66984;47.404;18.836;2023-05-07T02:43:33;14.87;73.13
77693;SHT31;66984;47.404;18.836;2023-05-07T02:44:36;14.88;73.15
77693;SHT31;66984;47.404;18.836;2023-05-07T02:45:39;14.90;73.27
77693;SHT31;66984;47.404;18.836;2023-05-07T02:46:42;14.84;73.44
77693;SHT31;66984;47.404;18.836;2023-05-07T02:47:45;14.83;73.50
77693;SHT31;66984;47.404;18.836;2023-05-07T02:48:49;14.79;73.50
77693;SHT31;66984;47.404;18.836;2023-05-07T02:49:52;14.73;73.45
77693;SHT31;66984;47.404;18.836;2023-05-07T02:50:55;14.70;73.63
77693;SHT31;66984;47.404;18.836;2023-05-07T02:51:58;14.64;73.68
77693;SHT31;66984;47.404;18.836;2023-05-07T02:53:01;14.62;73.90
77693;SHT31;66984;47.404;18.836;2023-05-07T02:54:04;14.59;73.98
77693;SHT31;66984;47.404;18.836;2023-05-07T02:55:07;14.56;74.13
77693;SHT31;66984;47.404;18.836;2023-05-07T02:56:10;14.56;74.16
77693;SHT31;66984;47.404;18.836;2023-05-07T02:57:13;14.57;74.23
77693;SHT31;66984;47.404;18.836;2023-05-07T02:58:16;14.55;74.31
77693;SHT31;66984;47.404;18.836;2023-05-07T02:59:19;14.53;74.36
77693;SHT31;66984;47.404;18.836;2023-05-07T03:00:22;14.50;74.67
77693;SHT31;66984;47.404;18.836;2023-05-07T03:01:25;14.50;74.71
77693;SHT31;66984;47.404;18.836;2023-05-07T03:02:28;14.55;74.68
77693;SHT31;66984;47.404;18.836;2023-05-07T03:03:31;14.59;74.61
77693;SHT31;66984;47.404;18.836;2023-05-07T03:04:34;14.57;74.59
77693;SHT31;66984;47.404;18.836;2023-05-07T03:05:37;14.62;74.58
77693;SHT31;66984;47.404;18.836;2023-05-07T03:06:40;14.62;74.54
77693;SHT31;66984;47.404;18.836;2023-05-07T03:07:44;14.62;74.59
77693;SHT31;66984;47.404;18.836;2023-05-07T03:08:48;14.60;74.60
77693;SHT31;66984;47.404;18.836;2023-05-07T03:09:51;14.59;74.78
77693;SHT31;66984;47.404;18.836;2023-05-07T03:10:54;14.60;74.80
77693;SHT31;66984;47.404;18.836;2023-05-07T03:11:57;14.59;74.78
77693;SHT31;66984;47.404;18.836;2023-05-07T03:13:00;14.60;74.72
77693;SHT31;66984;47.404;18.836;2023-05-07T03:14:04;14.59;74.62
77693;SHT31;66984;47.404;18.836;2023-05-07T03:15:07;14.59;74.67
77693;SHT31;66984;47.404;18.836;2023-05-07T03:16:10;14.53;74.72
77693;SHT31;66984;47.404;18.836;2023-05-07T03:17:13;14.53;74.72
77693;SHT31;66984;47.404;18.836;2023-05-07T03:18:16;14.57;74.69
77693;SHT31;66984;47.404;18.836;2023-05-07T03:19:19;14.56;74.66
77693;SHT31;66984;47.404;18.836;2023-05-07T03:20:22;14.55;74.76
77693;SHT31;66984;47.404;18.836;2023-05-07T03:21:25;14.56;74.78
77693;SHT31;66984;47.404;18.836;2023-05-07T03:22:29;14.60;74.80
77693;SHT31;66984;47.404;18.836;2023-05-07T03:23:31;14.60;74.85
77693;SHT31;66984;47.404;18.836;2023-05-07T03:24:34;14.60;74.90
77693;SHT31;66984;47.404;18.836;2023-05-07T03:25:37;14.59;74.92
77693;SHT31;66984;47.404;18.836;2023-05-07T03:26:40;14.62;74.96
77693;SHT31;66984;47.404;18.836;2023-05-07T03:27:43;14.64;74.96
77693;SHT31;66984;47.404;18.836;2023-05-07T03:28:46;14.64;75.00
77693;SHT31;66984;47.404;18.836;2023-05-07T03:29:49;14.63;74.95
77693;SHT31;66984;47.404;18.836;2023-05-07T03:30:52;14.62;75.25
77693;SHT31;66984;47.404;18.836;2023-05-07T03:31:54;14.59;75.23
77693;SHT31;66984;47.404;18.836;2023-05-07T03:32:57;14.57;75.29
77693;SHT31;66984;47.404;18.836;2023-05-07T03:34:00;14.59;75.29
77693;SHT31;66984;47.404;18.836;2023-05-07T03:35:04;14.59;75.20
77693;SHT31;66984;47.404;18.836;2023-05-07T03:36:07;14.63;75.22
77693;SHT31;66984;47.404;18.836;2023-05-07T03:37:10;14.59;75.30
77693;SHT31;66984;47.404;18.836;2023-05-07T03:38:13;14.60;75.23
77693;SHT31;66984;47.404;18.836;2023-05-07T03:39:15;14.63;75.20
77693;SHT31;66984;47.404;18.836;2023-05-07T03:40:18;14.63;75.16
77693;SHT31;66984;47.404;18.836;2023-05-07T03:41:21;14.60;75.25
77693;SHT31;66984;47.404;18.836;2023-05-07T03:42:24;14.59;75.26
77693;SHT31;66984;47.404;18.836;2023-05-07T03:43:27;14.62;75.22
77693;SHT31;66984;47.404;18.836;2023-05-07T03:44:30;14.57;75.26
77693;SHT31;66984;47.404;18.836;2023-05-07T03:45:33;14.59;75.19
77693;SHT31;66984;47.404;18.836;2023-05-07T03:46:36;14.55;75.24
77693;SHT31;66984;47.404;18.836;2023-05-07T03:47:38;14.56;75.24
77693;SHT31;66984;47.404;18.836;2023-05-07T03:48:41;14.56;75.04
77693;SHT31;66984;47.404;18.836;2023-05-07T03:49:44;14.55;75.03
77693;SHT31;66984;47.404;18.836;2023-05-07T03:50:47;14.55;75.08
77693;SHT31;66984;47.404;18.836;2023-05-07T03:51:50;14.50;75.15
77693;SHT31;66984;47.404;18.836;2023-05-07T03:52:53;14.53;75.21
77693;SHT31;66984;47.404;18.836;2023-05-07T03:53:56;14.50;75.10
77693;SHT31;66984;47.404;18.836;2023-05-07T03:55:00;14.49;75.09
77693;SHT31;66984;47.404;18.836;2023-05-07T03:56:03;14.49;74.99
77693;SHT31;66984;47.404;18.836;2023-05-07T03:57:06;14.53;74.92
77693;SHT31;66984;47.404;18.836;2023-05-07T03:58:09;14.56;74.85
77693;SHT31;66984;47.404;18.836;2023-05-07T03:59:12;14.52;74.85
77693;SHT31;66984;47.404;18.836;2023-05-07T04:00:16;14.49;74.84
77693;SHT31;66984;47.404;18.836;2023-05-07T04:01:19;14.46;74.91
77693;SHT31;66984;47.404;18.836;2023-05-07T04:02:21;14.47;74.99
77693;SHT31;66984;47.404;18.836;2023-05-07T04:03:24;14.53;74.95
77693;SHT31;66984;47.404;18.836;2023-05-07T04:04:27;14.52;74.97
77693;SHT31;66984;47.404;18.836;2023-05-07T04:05:35;14.50;74.95
77693;SHT31;66984;47.404;18.836;2023-05-07T04:06:38;14.53;75.08
77693;SHT31;66984;47.404;18.836;2023-05-07T04:07:41;14.52;75.09
77693;SHT31;66984;47.404;18.836;2023-05-07T04:08:44;14.52;75.09
77693;SHT31;66984;47.404;18.836;2023-05-07T04:09:47;14.55;75.09
77693;SHT31;66984;47.404;18.836;2023-05-07T04:10:57;14.50;75.17
77693;SHT31;66984;47.404;18.836;2023-05-07T04:12:02;14.53;75.34
77693;SHT31;66984;47.404;18.836;2023-05-07T04:13:05;14.53;75.47
77693;SHT31;66984;47.404;18.836;2023-05-07T04:14:07;14.57;75.56
77693;SHT31;66984;47.404;18.836;2023-05-07T04:15:10;14.55;75.76
77693;SHT31;66984;47.404;18.836;2023-05-07T04:16:13;14.59;76.05
77693;SHT31;66984;47.404;18.836;2023-05-07T04:17:16;14.62;76.02
77693;SHT31;66984;47.404;18.836;2023-05-07T04:18:19;14.63;76.26
77693;SHT31;66984;47.404;18.836;2023-05-07T04:19:22;14.64;76.58
77693;SHT31;66984;47.404;18.836;2023-05-07T04:20:25;14.69;76.69
77693;SHT31;66984;47.404;18.836;2023-05-07T04:21:28;14.72;76.81
77693;SHT31;66984;47.404;18.836;2023-05-07T04:22:31;14.73;77.14
77693;SHT31;66984;47.404;18.836;2023-05-07T04:23:34;14.72;77.62
77693;SHT31;66984;47.404;18.836;2023-05-07T04:24:37;14.74;77.73
77693;SHT31;66984;47.404;18.836;2023-05-07T04:25:39;14.76;77.86
77693;SHT31;66984;47.404;18.836;2023-05-07T04:26:42;14.77;78.06
77693;SHT31;66984;47.404;18.836;2023-05-07T04:27:45;14.81;78.06
77693;SHT31;66984;47.404;18.836;2023-05-07T04:28:48;14.83;78.37
77693;SHT31;66984;47.404;18.836;2023-05-07T04:29:51;14.85;78.26
77693;SHT31;66984;47.404;18.836;2023-05-07T04:30:54;14.90;78.34
77693;SHT31;66984;47.404;18.836;2023-05-07T04:31:57;14.93;78.46
77693;SHT31;66984;47.404;18.836;2023-05-07T04:33:01;14.94;78.49
77693;SHT31;66984;47.404;18.836;2023-05-07T04:34:04;15.00;78.55
77693;SHT31;66984;47.404;18.836;2023-05-07T04:35:07;15.00;78.62
77693;SHT31;66984;47.404;18.836;2023-05-07T04:36:10;15.03;78.92
77693;SHT31;66984;47.404;18.836;2023-05-07T04:37:13;15.03;79.04
77693;SHT31;66984;47.404;18.836;2023-05-07T04:38:16;15.07;79.04
77693;SHT31;66984;47.404;18.836;2023-05-07T04:39:20;15.10;79.06
77693;SHT31;66984;47.404;18.836;2023-05-07T04:40:23;15.12;78.99
77693;SHT31;66984;47.404;18.836;2023-05-07T04:41:26;15.17;79.08
77693;SHT31;66984;47.404;18.836;2023-05-07T04:42:30;15.20;79.03
77693;SHT31;66984;47.404;18.836;2023-05-07T04:43:33;15.28;78.98
77693;SHT31;66984;47.404;18.836;2023-05-07T04:44:36;15.32;79.04
77693;SHT31;66984;47.404;18.836;2023-05-07T04:45:39;15.35;78.91
77693;SHT31;66984;47.404;18.836;2023-05-07T04:46:44;15.42;78.78
77693;SHT31;66984;47.404;18.836;2023-05-07T04:47:47;15.45;78.69
77693;SHT31;66984;47.404;18.836;2023-05-07T04:48:51;15.45;78.60
77693;SHT31;66984;47.404;18.836;2023-05-07T04:49:54;15.48;78.55
77693;SHT31;66984;47.404;18.836;2023-05-07T04:50:56;15.49;78.47
77693;SHT31;66984;47.404;18.836;2023-05-07T04:51:59;15.53;78.48
77693;SHT31;66984;47.404;18.836;2023-05-07T04:53:02;15.53;78.42
77693;SHT31;66984;47.404;18.836;2023-05-07T04:54:05;15.56;78.32
77693;SHT31;66984;47.404;18.836;2023-05-07T04:55:08;15.62;78.25
77693;SHT31;66984;47.404;18.836;2023-05-07T04:56:11;15.65;78.25
77693;SHT31;66984;47.404;18.836;2023-05-07T04:57:14;15.72;78.09
77693;SHT31;66984;47.404;18.836;2023-05-07T04:58:17;15.72;77.95
77693;SHT31;66984;47.404;18.836;2023-05-07T04:59:20;15.76;77.84
77693;SHT31;66984;47.404;18.836;2023-05-07T05:00:23;15.82;77.77
77693;SHT31;66984;47.404;18.836;2023-05-07T05:01:26;15.79;77.70
77693;SHT31;66984;47.404;18.836;2023-05-07T05:02:29;15.85;77.67
77693;SHT31;66984;47.404;18.836;2023-05-07T05:03:32;15.86;77.71
77693;SHT31;66984;47.404;18.836;2023-05-07T05:04:35;15.90;77.79
77693;SHT31;66984;47.404;18.836;2023-05-07T05:05:38;15.91;78.01
77693;SHT31;66984;47.404;18.836;2023-05-07T05:06:40;15.89;78.25
77693;SHT31;66984;47.404;18.836;2023-05-07T05:07:43;15.86;78.49
77693;SHT31;66984;47.404;18.836;2023-05-07T05:08:46;15.91;78.41
77693;SHT31;66984;47.404;18.836;2023-05-07T05:09:49;15.90;78.38
77693;SHT31;66984;47.404;18.836;2023-05-07T05:10:52;15.90;78.49
77693;SHT31;66984;47.404;18.836;2023-05-07T05:11:55;15.90;78.47
77693;SHT31;66984;47.404;18.836;2023-05-07T05:12:58;15.91;78.52
77693;SHT31;66984;47.404;18.836;2023-05-07T05:14:01;15.90;78.48
77693;SHT31;66984;47.404;18.836;2023-05-07T05:15:05;15.96;78.43
77693;SHT31;66984;47.404;18.836;2023-05-07T05:16:08;15.96;78.44
77693;SHT31;66984;47.404;18.836;2023-05-07T05:17:11;16.01;78.47
77693;SHT31;66984;47.404;18.836;2023-05-07T05:18:14;16.04;78.40
77693;SHT31;66984;47.404;18.836;2023-05-07T05:19:17;16.11;78.30
77693;SHT31;66984;47.404;18.836;2023-05-07T05:20:20;16.11;78.24
77693;SHT31;66984;47.404;18.836;2023-05-07T05:21:23;16.14;78.25
77693;SHT31;66984;47.404;18.836;2023-05-07T05:22:26;16.17;78.18
77693;SHT31;66984;47.404;18.836;2023-05-07T05:23:32;16.20;78.05
77693;SHT31;66984;47.404;18.836;2023-05-07T05:24:35;16.24;77.98
77693;SHT31;66984;47.404;18.836;2023-05-07T05:25:37;16.30;77.89
77693;SHT31;66984;47.404;18.836;2023-05-07T05:26:41;16.31;77.84
77693;SHT31;66984;47.404;18.836;2023-05-07T05:27:44;16.38;77.84
77693;SHT31;66984;47.404;18.836;2023-05-07T05:28:47;16.41;77.73
77693;SHT31;66984;47.404;18.836;2023-05-07T05:29:50;16.38;77.70
77693;SHT31;66984;47.404;18.836;2023-05-07T05:30:53;16.42;77.66
77693;SHT31;66984;47.404;18.836;2023-05-07T05:31:56;16.48;77.60
77693;SHT31;66984;47.404;18.836;2023-05-07T05:32:59;16.51;77.51
77693;SHT31;66984;47.404;18.836;2023-05-07T05:34:02;16.52;77.47
77693;SHT31;66984;47.404;18.836;2023-05-07T05:35:06;16.52;77.53
77693;SHT31;66984;47.404;18.836;2023-05-07T05:36:10;16.59;77.49
77693;SHT31;66984;47.404;18.836;2023-05-07T05:37:13;16.67;77.55
77693;SHT31;66984;47.404;18.836;2023-05-07T05:38:16;16.65;77.59
77693;SHT31;66984;47.404;18.836;2023-05-07T05:39:19;16.71;77.69
77693;SHT31;66984;47.404;18.836;2023-05-07T05:40:21;16.72;77.56
77693;SHT31;66984;47.404;18.836;2023-05-07T05:41:24;16.78;77.44
77693;SHT31;66984;47.404;18.836;2023-05-07T05:42:27;16.82;77.24
77693;SHT31;66984;47.404;18.836;2023-05-07T05:43:31;16.85;77.11
77693;SHT31;66984;47.404;18.836;2023-05-07T05:44:33;16.90;77.09
77693;SHT31;66984;47.404;18.836;2023-05-07T05:45:36;16.92;77.04
77693;SHT31;66984;47.404;18.836;2023-05-07T05:46:39;16.96;76.92
77693;SHT31;66984;47.404;18.836;2023-05-07T05:47:42;17.02;76.80
77693;SHT31;66984;47.404;18.836;2023-05-07T05:48:45;17.07;76.70
77693;SHT31;66984;47.404;18.836;2023-05-07T05:49:48;17.15;76.55
77693;SHT31;66984;47.404;18.836;2023-05-07T05:50:51;17.17;76.36
77693;SHT31;66984;47.404;18.836;2023-05-07T05:51:54;17.20;76.22
77693;SHT31;66984;47.404;18.836;2023-05-07T05:52:58;17.23;76.08
77693;SHT31;66984;47.404;18.836;2023-05-07T05:54:01;17.28;76.00
77693;SHT31;66984;47.404;18.836;2023-05-07T05:55:04;17.34;75.91
77693;SHT31;66984;47.404;18.836;2023-05-07T05:56:08;17.38;75.87
77693;SHT31;66984;47.404;18.836;2023-05-07T05:57:11;17.44;75.84
77693;SHT31;66984;47.404;18.836;2023-05-07T05:58:14;17.43;75.64
77693;SHT31;66984;47.404;18.836;2023-05-07T05:59:17;17.48;75.52
77693;SHT31;66984;47.404;18.836;2023-05-07T06:00:20;17.55;75.57
77693;SHT31;66984;47.404;18.836;2023-05-07T06:01:25;17.58;75.56
77693;SHT31;66984;47.404;18.836;2023-05-07T06:02:28;17.60;75.72
77693;SHT31;66984;47.404;18.836;2023-05-07T06:03:31;17.68;75.73
77693;SHT31;66984;47.404;18.836;2023-05-07T06:04:34;17.70;75.37
77693;SHT31;66984;47.404;18.836;2023-05-07T06:05:38;17.79;75.26
77693;SHT31;66984;47.404;18.836;2023-05-07T06:06:40;17.84;75.08
77693;SHT31;66984;47.404;18.836;2023-05-07T06:07:43;17.86;74.98
77693;SHT31;66984;47.404;18.836;2023-05-07T06:08:46;17.95;74.88
77693;SHT31;66984;47.404;18.836;2023-05-07T06:09:49;17.99;74.83
77693;SHT31;66984;47.404;18.836;2023-05-07T06:10:52;18.06;74.55
77693;SHT31;66984;47.404;18.836;2023-05-07T06:11:55;18.10;74.46
77693;SHT31;66984;47.404;18.836;2023-05-07T06:13:01;18.16;74.19
77693;SHT31;66984;47.404;18.836;2023-05-07T06:14:04;18.22;73.84
77693;SHT31;66984;47.404;18.836;2023-05-07T06:15:07;18.25;73.65
77693;SHT31;66984;47.404;18.836;2023-05-07T06:16:10;18.33;73.14
77693;SHT31;66984;47.404;18.836;2023-05-07T06:17:12;18.36;72.92
77693;SHT31;66984;47.404;18.836;2023-05-07T06:18:15;18.43;72.84
77693;SHT31;66984;47.404;18.836;2023-05-07T06:19:18;18.44;72.45
77693;SHT31;66984;47.404;18.836;2023-05-07T06:20:25;18.49;72.30
77693;SHT31;66984;47.404;18.836;2023-05-07T06:21:28;18.52;72.41
77693;SHT31;66984;47.404;18.836;2023-05-07T06:22:31;18.57;71.87
77693;SHT31;66984;47.404;18.836;2023-05-07T06:23:34;18.57;70.61
77693;SHT31;66984;47.404;18.836;2023-05-07T06:24:37;18.60;71.31
77693;SHT31;66984;47.404;18.836;2023-05-07T06:25:40;18.65;71.19
77693;SHT31;66984;47.404;18.836;2023-05-07T06:26:43;18.68;71.29
77693;SHT31;66984;47.404;18.836;2023-05-07T06:27:46;18.67;71.14
77693;SHT31;66984;47.404;18.836;2023-05-07T06:28:49;18.68;71.15
77693;SHT31;66984;47.404;18.836;2023-05-07T06:29:51;18.73;71.18
77693;SHT31;66984;47.404;18.836;2023-05-07T06:30:54;18.74;71.16
77693;SHT31;66984;47.404;18.836;2023-05-07T06:32:06;18.68;71.41
77693;SHT31;66984;47.404;18.836;2023-05-07T06:33:09;18.67;71.87
77693;SHT31;66984;47.404;18.836;2023-05-07T06:34:12;18.63;72.18